Time;durP1;ratioP1;P1;durP2;ratioP2;P2;SDS_P1;SDS_P2;PMS_P1;PMS_P2;Temp;Humidity;BMP_temperature;BMP_pressure;BME280_temperature;BME280_humidity;BME280_pressure;Samples;Min_cycle;Max_cycle;Signal;HPM_P1;HPM_P2
2020/12/14 00:00:17;;;;;;;5.95;2.58;;;8.40;96.60;;;;;;2123283;27;20023;-76
2020/12/14 00:01:18;;;;;;;5.07;2.10;;;8.40;96.50;;;;;;2122862;27;20064;-78
2020/12/14 00:02:19;;;;;;;6.57;2.22;;;8.40;96.50;;;;;;2122870;27;20050;-76
2020/12/14 00:03:19;;;;;;;8.82;1.90;;;8.40;96.70;;;;;;2123071;27;20054;-79
2020/12/14 00:04:20;;;;;;;5.10;2.50;;;8.40;96.50;;;;;;2123281;27;20428;-76
2020/12/14 00:05:20;;;;;;;3.08;2.13;;;8.40;96.60;;;;;;2122877;27;20023;-77
2020/12/14 00:06:21;;;;;;;5.47;1.98;;;8.40;96.50;;;;;;2123192;27;20027;-78
2020/12/14 00:07:22;;;;;;;9.80;2.65;;;8.40;96.50;;;;;;2123223;27;20027;-79
2020/12/14 00:08:23;;;;;;;6.13;2.47;;;8.40;96.40;;;;;;2122996;27;20427;-78
2020/12/14 00:09:23;;;;;;;4.57;2.17;;;8.30;96.40;;;;;;2113828;28;20032;-74
2020/12/14 00:10:24;;;;;;;7.50;2.28;;;8.30;96.40;;;;;;2113939;28;20031;-76
2020/12/14 00:11:34;;;;;;;7.45;2.33;;;8.30;96.30;;;;;;2113283;28;20114;-77
2020/12/14 00:12:35;;;;;;;5.88;2.28;;;8.30;96.10;;;;;;2115376;27;20074;-78
2020/12/14 00:13:36;;;;;;;6.03;2.35;;;8.30;96.50;;;;;;2113914;28;20015;-75
2020/12/14 00:14:36;;;;;;;5.55;2.20;;;8.30;96.60;;;;;;2105638;28;20476;-77
2020/12/14 00:15:37;;;;;;;3.63;1.90;;;8.30;96.60;;;;;;2113833;28;20111;-77
2020/12/14 00:16:40;;;;;;;3.38;2.03;;;8.30;96.60;;;;;;2123062;27;20047;-77
2020/12/14 00:17:41;;;;;;;5.70;2.13;;;8.40;96.60;;;;;;2122954;27;20486;-75
2020/12/14 00:18:41;;;;;;;4.50;2.38;;;8.30;96.50;;;;;;2114121;28;20023;-76
2020/12/14 00:19:42;;;;;;;5.05;2.10;;;8.30;96.50;;;;;;2113996;28;20066;-76
2020/12/14 00:20:42;;;;;;;4.47;2.00;;;8.40;96.60;;;;;;2123401;27;20523;-77
2020/12/14 00:21:43;;;;;;;5.15;2.58;;;8.30;96.60;;;;;;2113222;28;20027;-77
2020/12/14 00:22:43;;;;;;;3.92;2.05;;;8.30;96.60;;;;;;2114043;28;20028;-75
2020/12/14 00:23:47;;;;;;;5.72;2.25;;;8.40;96.60;;;;;;2123204;27;20094;-79
2020/12/14 00:24:47;;;;;;;7.05;2.22;;;8.40;96.50;;;;;;2113800;28;20019;-77
2020/12/14 00:25:48;;;;;;;5.07;2.17;;;8.40;96.40;;;;;;2113723;28;20024;-80
2020/12/14 00:26:50;;;;;;;6.90;1.85;;;8.40;96.50;;;;;;2123034;27;20023;-78
2020/12/14 00:27:50;;;;;;;4.80;2.17;;;8.40;96.60;;;;;;2122661;27;20031;-78
2020/12/14 00:28:51;;;;;;;2.88;1.67;;;8.40;96.70;;;;;;2123027;27;20517;-77
2020/12/14 00:29:52;;;;;;;4.05;1.80;;;8.40;96.30;;;;;;2123110;27;20501;-76
2020/12/14 00:30:52;;;;;;;6.10;2.17;;;8.50;96.30;;;;;;2113852;28;20596;-77
2020/12/14 00:31:56;;;;;;;5.28;2.00;;;8.40;96.30;;;;;;2104213;28;20116;-76
2020/12/14 00:32:57;;;;;;;5.47;2.25;;;8.40;96.30;;;;;;2114675;27;20034;-78
2020/12/14 00:33:57;;;;;;;6.30;2.40;;;8.40;96.40;;;;;;2122750;27;20098;-77
2020/12/14 00:34:58;;;;;;;4.28;1.50;;;8.50;96.50;;;;;;2113877;28;20054;-77
2020/12/14 00:35:58;;;;;;;3.08;2.00;;;8.50;96.30;;;;;;2105462;28;20111;-77
2020/12/14 00:36:59;;;;;;;8.05;2.08;;;8.50;96.20;;;;;;2113747;28;20444;-75
2020/12/14 00:38:01;;;;;;;3.65;1.80;;;8.50;96.50;;;;;;2123009;27;20058;-78
2020/12/14 00:39:02;;;;;;;5.07;1.95;;;8.50;96.00;;;;;;2123106;27;20022;-79
2020/12/14 00:40:03;;;;;;;5.00;1.98;;;8.50;95.90;;;;;;2122672;27;20031;-77
2020/12/14 00:41:04;;;;;;;7.10;1.75;;;8.50;96.00;;;;;;2113631;28;20020;-77
2020/12/14 00:42:05;;;;;;;6.00;1.98;;;8.60;96.10;;;;;;2104870;28;20020;-76
2020/12/14 00:43:05;;;;;;;3.63;1.90;;;8.60;96.00;;;;;;2113931;28;20568;-77
2020/12/14 00:44:06;;;;;;;3.83;2.05;;;8.60;96.00;;;;;;2122867;27;20068;-75
2020/12/14 00:45:07;;;;;;;5.13;2.13;;;8.60;95.90;;;;;;2113770;28;20024;-77
2020/12/14 00:46:11;;;;;;;5.28;2.25;;;8.60;95.90;;;;;;2105251;28;20074;-76
2020/12/14 00:47:12;;;;;;;6.43;2.20;;;8.60;95.80;;;;;;2114198;28;20102;-77
2020/12/14 00:48:13;;;;;;;5.18;2.00;;;8.60;96.00;;;;;;2122986;27;20023;-79
2020/12/14 00:49:13;;;;;;;5.13;1.88;;;8.60;96.20;;;;;;2122825;27;20015;-77
2020/12/14 00:50:14;;;;;;;8.43;2.00;;;8.60;96.10;;;;;;2122684;27;20031;-78
2020/12/14 00:51:14;;;;;;;4.85;1.75;;;8.60;95.90;;;;;;2122895;27;20023;-77
2020/12/14 00:52:15;;;;;;;4.10;1.95;;;8.60;95.90;;;;;;2113148;28;20023;-78
2020/12/14 00:53:16;;;;;;;4.47;1.60;;;8.60;95.90;;;;;;2113606;28;20028;-78
2020/12/14 00:54:16;;;;;;;5.43;2.08;;;8.60;95.90;;;;;;2122948;27;20031;-77
2020/12/14 00:55:17;;;;;;;6.10;1.90;;;8.60;96.10;;;;;;2122614;27;20430;-75
2020/12/14 00:56:18;;;;;;;5.45;1.80;;;8.60;95.90;;;;;;2122525;27;20031;-78
2020/12/14 00:57:18;;;;;;;6.75;2.05;;;8.60;96.10;;;;;;2122607;27;20025;-76
2020/12/14 00:58:19;;;;;;;4.93;2.20;;;8.70;96.10;;;;;;2113639;28;20019;-77
2020/12/14 00:59:19;;;;;;;6.00;1.67;;;8.70;96.10;;;;;;2113478;28;20032;-76
2020/12/14 01:00:20;;;;;;;4.82;1.75;;;8.70;96.20;;;;;;2113682;28;20460;-76
2020/12/14 01:01:20;;;;;;;7.65;2.05;;;8.70;95.90;;;;;;2113222;28;20023;-76
2020/12/14 01:02:22;;;;;;;7.30;1.60;;;8.70;95.80;;;;;;2113463;28;20280;-79
2020/12/14 01:03:25;;;;;;;5.05;1.70;;;8.70;95.90;;;;;;2104977;28;20024;-75
2020/12/14 01:04:26;;;;;;;4.72;2.08;;;8.70;95.80;;;;;;2114035;27;20019;-76
2020/12/14 01:05:26;;;;;;;7.65;2.08;;;8.70;95.70;;;;;;2122413;27;20049;-75
2020/12/14 01:06:27;;;;;;;3.22;1.77;;;8.70;95.60;;;;;;2113563;28;20476;-75
2020/12/14 01:07:28;;;;;;;3.60;1.52;;;8.80;95.50;;;;;;2113263;28;20510;-75
2020/12/14 01:08:28;;;;;;;4.68;1.77;;;8.80;95.40;;;;;;2113574;28;20472;-75
2020/12/14 01:09:29;;;;;;;5.70;2.22;;;8.70;95.50;;;;;;2113249;28;20234;-75
2020/12/14 01:10:29;;;;;;;7.45;2.00;;;8.70;95.60;;;;;;2113719;28;20069;-74
2020/12/14 01:11:30;;;;;;;4.07;1.88;;;8.80;95.60;;;;;;2112794;28;20142;-76
2020/12/14 01:12:30;;;;;;;4.15;2.00;;;8.80;95.50;;;;;;2122575;27;20019;-78
2020/12/14 01:13:31;;;;;;;3.97;1.80;;;8.80;95.50;;;;;;2113436;28;20560;-76
2020/12/14 01:14:31;;;;;;;3.03;1.77;;;8.80;95.70;;;;;;2104867;28;20083;-78
2020/12/14 01:15:32;;;;;;;2.88;1.85;;;8.80;95.70;;;;;;2104797;28;20419;-76
2020/12/14 01:16:32;;;;;;;3.38;1.83;;;8.80;95.60;;;;;;2105156;28;20016;-76
2020/12/14 01:17:33;;;;;;;5.53;2.10;;;8.80;95.40;;;;;;2113193;28;20490;-78
2020/12/14 01:18:36;;;;;;;6.32;2.13;;;8.80;95.20;;;;;;2122578;27;20463;-78
2020/12/14 01:19:37;;;;;;;3.53;1.80;;;8.80;95.20;;;;;;2122346;27;20383;-74
2020/12/14 01:20:41;;;;;;;4.13;1.65;;;8.80;95.40;;;;;;2122847;27;20110;-77
2020/12/14 01:21:41;;;;;;;4.60;2.00;;;8.90;95.40;;;;;;2121947;27;20111;-76
2020/12/14 01:22:45;;;;;;;4.40;2.00;;;8.90;95.40;;;;;;2113423;28;20026;-75
2020/12/14 01:23:45;;;;;;;4.25;1.85;;;8.90;95.50;;;;;;2113691;28;20403;-77
2020/12/14 01:24:46;;;;;;;4.50;1.77;;;8.90;95.40;;;;;;2113456;28;20023;-76
2020/12/14 01:25:46;;;;;;;5.45;1.80;;;8.90;95.40;;;;;;2113332;28;20100;-78
2020/12/14 01:26:47;;;;;;;3.05;1.80;;;8.90;95.60;;;;;;2122841;27;20541;-75
2020/12/14 01:27:47;;;;;;;5.90;2.05;;;8.90;95.50;;;;;;2122197;27;20027;-77
2020/12/14 01:28:48;;;;;;;3.55;1.90;;;8.90;95.40;;;;;;2122410;27;20076;-77
2020/12/14 01:29:48;;;;;;;6.45;1.92;;;8.90;95.40;;;;;;2122333;27;20023;-77
2020/12/14 01:30:49;;;;;;;3.83;1.75;;;8.90;95.30;;;;;;2122475;27;20023;-75
2020/12/14 01:31:49;;;;;;;8.85;1.98;;;8.90;95.20;;;;;;2121881;27;20080;-78
2020/12/14 01:32:51;;;;;;;4.55;1.60;;;8.90;95.20;;;;;;2122741;27;20027;-78
2020/12/14 01:33:51;;;;;;;9.13;2.28;;;8.90;95.30;;;;;;2113190;28;20050;-78
2020/12/14 01:34:52;;;;;;;7.20;1.90;;;8.90;95.30;;;;;;2113542;28;20031;-77
2020/12/14 01:35:52;;;;;;;6.07;1.80;;;8.90;95.40;;;;;;2122505;27;20030;-75
2020/12/14 01:36:53;;;;;;;6.63;1.70;;;8.90;95.30;;;;;;2122547;27;20099;-79
2020/12/14 01:37:54;;;;;;;5.32;1.85;;;8.90;95.10;;;;;;2113191;28;20471;-77
2020/12/14 01:38:55;;;;;;;4.60;1.90;;;9.00;95.10;;;;;;2113363;28;20024;-75
2020/12/14 01:39:55;;;;;;;3.90;1.90;;;8.90;95.10;;;;;;2122289;27;20052;-78
2020/12/14 01:40:56;;;;;;;3.90;1.50;;;9.00;95.20;;;;;;2113007;28;20051;-77
2020/12/14 01:41:56;;;;;;;4.55;2.25;;;9.00;95.20;;;;;;2112819;28;20019;-78
2020/12/14 01:42:57;;;;;;;3.83;1.52;;;9.00;95.30;;;;;;2113195;28;20022;-76
2020/12/14 01:43:58;;;;;;;2.92;1.50;;;8.90;95.30;;;;;;2113307;28;20031;-76
2020/12/14 01:44:58;;;;;;;4.38;1.67;;;9.00;95.20;;;;;;2122410;27;20379;-75
2020/12/14 01:45:59;;;;;;;4.32;2.03;;;9.00;95.10;;;;;;2112747;28;20028;-78
2020/12/14 01:47:02;;;;;;;2.90;1.73;;;9.00;95.10;;;;;;2112868;28;20030;-78
2020/12/14 01:48:06;;;;;;;4.70;1.65;;;9.00;95.10;;;;;;2122660;27;20095;-75
2020/12/14 01:49:08;;;;;;;3.78;1.70;;;9.00;95.20;;;;;;2113059;28;20468;-76
2020/12/14 01:50:11;;;;;;;6.18;2.15;;;9.00;95.10;;;;;;2113174;28;20016;-75
2020/12/14 01:51:12;;;;;;;4.57;1.63;;;9.00;94.80;;;;;;2122252;27;20111;-75
2020/12/14 01:52:13;;;;;;;3.95;1.63;;;9.00;94.90;;;;;;2121985;27;20570;-77
2020/12/14 01:53:14;;;;;;;3.72;1.70;;;9.00;94.90;;;;;;2113223;28;20399;-75
2020/12/14 01:54:34;;;;;;;6.55;1.80;;;9.00;95.10;;;;;;2104985;28;20043;-78
2020/12/14 01:55:41;;;;;;;2.13;1.88;;;9.00;95.00;;;;;;2115961;27;20403;-77
2020/12/14 01:56:43;;;;;;;5.97;2.00;;;9.00;95.10;;;;;;2122467;27;20031;-75
2020/12/14 01:57:43;;;;;;;4.85;1.70;;;9.00;95.10;;;;;;2121799;27;20023;-76
2020/12/14 01:58:44;;;;;;;3.28;1.33;;;9.00;95.10;;;;;;2122342;27;20491;-77
2020/12/14 01:59:45;;;;;;;4.15;1.80;;;8.90;95.10;;;;;;2112970;28;20093;-77
2020/12/14 02:00:46;;;;;;;5.00;1.60;;;8.90;94.90;;;;;;2104754;28;20024;-77
2020/12/14 02:01:46;;;;;;;4.15;1.83;;;9.00;95.00;;;;;;2112424;28;20533;-75
2020/12/14 02:02:47;;;;;;;4.13;1.50;;;9.00;95.10;;;;;;2113425;28;20468;-76
2020/12/14 02:03:47;;;;;;;8.48;1.85;;;9.00;95.20;;;;;;2112872;28;20032;-78
2020/12/14 02:04:48;;;;;;;2.80;1.20;;;8.90;94.90;;;;;;2122285;27;20387;-75
2020/12/14 02:05:49;;;;;;;3.70;1.65;;;8.90;95.00;;;;;;2122230;27;20031;-76
2020/12/14 02:06:49;;;;;;;4.38;1.50;;;9.00;95.10;;;;;;2122446;27;20055;-75
2020/12/14 02:07:50;;;;;;;3.03;1.65;;;8.90;95.00;;;;;;2122059;27;20055;-77
2020/12/14 02:08:50;;;;;;;4.20;1.63;;;8.90;95.10;;;;;;2122339;27;20027;-75
2020/12/14 02:09:54;;;;;;;4.32;2.20;;;9.00;95.30;;;;;;2121998;27;20081;-76
2020/12/14 02:10:55;;;;;;;5.45;1.75;;;9.00;95.00;;;;;;2122308;27;20110;-77
2020/12/14 02:11:55;;;;;;;5.80;1.85;;;9.00;95.10;;;;;;2121673;27;20028;-76
2020/12/14 02:12:56;;;;;;;6.45;1.45;;;8.90;95.00;;;;;;2122141;27;20046;-78
2020/12/14 02:13:57;;;;;;;3.10;1.60;;;9.00;95.00;;;;;;2122158;27;20045;-78
2020/12/14 02:14:58;;;;;;;5.75;1.60;;;9.00;95.10;;;;;;2122203;27;20083;-78
2020/12/14 02:15:59;;;;;;;4.32;1.60;;;8.90;94.80;;;;;;2122229;27;20015;-76
2020/12/14 02:16:59;;;;;;;2.97;1.77;;;8.90;95.00;;;;;;2122238;27;20475;-77
2020/12/14 02:18:00;;;;;;;2.90;1.58;;;8.90;94.90;;;;;;2113021;28;20035;-76
2020/12/14 02:19:00;;;;;;;5.22;1.73;;;8.90;95.00;;;;;;2113449;28;20065;-77
2020/12/14 02:20:01;;;;;;;3.45;1.48;;;8.90;95.00;;;;;;2122027;27;20019;-75
2020/12/14 02:21:01;;;;;;;3.75;1.58;;;8.90;95.00;;;;;;2122260;27;20019;-78
2020/12/14 02:22:02;;;;;;;5.20;1.58;;;8.90;95.00;;;;;;2121805;27;20023;-76
2020/12/14 02:23:02;;;;;;;4.43;1.65;;;8.90;94.90;;;;;;2113084;28;20016;-79
2020/12/14 02:24:14;;;;;;;3.78;1.48;;;8.90;94.80;;;;;;2113102;28;20093;-78
2020/12/14 02:25:14;;;;;;;3.08;1.30;;;8.90;94.90;;;;;;2113096;28;20030;-76
2020/12/14 02:26:15;;;;;;;4.25;1.85;;;8.90;95.10;;;;;;2104465;28;20042;-77
2020/12/14 02:27:15;;;;;;;5.18;1.75;;;8.90;95.10;;;;;;2113263;28;20028;-75
2020/12/14 02:28:16;;;;;;;5.40;1.55;;;8.90;95.00;;;;;;2122345;28;20034;-80
2020/12/14 02:29:17;;;;;;;5.43;1.90;;;8.90;95.00;;;;;;2122296;28;20019;-77
2020/12/14 02:30:18;;;;;;;4.05;1.67;;;8.90;95.10;;;;;;2122136;28;20027;-76
2020/12/14 02:31:19;;;;;;;4.38;1.58;;;8.80;95.10;;;;;;2112991;28;20380;-77
2020/12/14 02:32:21;;;;;;;2.20;1.45;;;8.90;95.10;;;;;;2104156;28;20032;-75
2020/12/14 02:33:21;;;;;;;3.63;1.77;;;8.90;95.00;;;;;;2113446;28;20027;-77
2020/12/14 02:34:22;;;;;;;1.92;1.17;;;8.90;95.10;;;;;;2122105;28;20031;-76
2020/12/14 02:35:22;;;;;;;5.07;1.48;;;8.90;95.10;;;;;;2112836;28;20016;-78
2020/12/14 02:36:24;;;;;;;3.38;1.77;;;8.90;94.90;;;;;;2112982;28;20043;-77
2020/12/14 02:37:27;;;;;;;3.65;1.67;;;8.80;94.90;;;;;;2122031;28;20375;-76
2020/12/14 02:38:27;;;;;;;4.85;1.45;;;8.80;94.80;;;;;;2122084;28;20464;-75
2020/12/14 02:39:28;;;;;;;6.68;2.03;;;8.80;94.90;;;;;;2121972;28;20100;-77
2020/12/14 02:40:28;;;;;;;3.15;1.45;;;8.80;94.80;;;;;;2113137;28;20126;-77
2020/12/14 02:41:29;;;;;;;5.40;1.90;;;8.80;95.30;;;;;;2112561;28;20082;-75
2020/12/14 02:42:30;;;;;;;3.88;1.38;;;8.80;95.00;;;;;;2122044;28;20063;-78
2020/12/14 02:43:30;;;;;;;4.93;1.50;;;8.80;95.00;;;;;;2122055;28;20023;-74
2020/12/14 02:44:31;;;;;;;4.78;1.58;;;8.80;94.90;;;;;;2122072;28;20039;-76
2020/12/14 02:45:31;;;;;;;3.67;1.55;;;8.80;95.00;;;;;;2121988;28;20110;-76
2020/12/14 02:46:32;;;;;;;2.80;1.75;;;8.80;95.20;;;;;;2122269;28;20123;-76
2020/12/14 02:47:32;;;;;;;6.47;1.85;;;8.80;95.10;;;;;;2121864;28;20049;-75
2020/12/14 02:48:33;;;;;;;2.70;1.42;;;8.80;95.10;;;;;;2121871;28;20045;-75
2020/12/14 02:49:35;;;;;;;3.55;1.40;;;8.80;95.10;;;;;;2112869;28;20101;-75
2020/12/14 02:50:35;;;;;;;3.05;1.50;;;8.80;95.10;;;;;;2109767;28;20019;-76
2020/12/14 02:51:36;;;;;;;5.20;1.42;;;8.70;95.00;;;;;;2121601;28;20019;-78
2020/12/14 02:52:36;;;;;;;3.92;1.48;;;8.70;95.10;;;;;;2113015;28;20020;-77
2020/12/14 02:53:37;;;;;;;4.57;1.92;;;8.80;95.00;;;;;;2112670;28;20039;-76
2020/12/14 02:54:40;;;;;;;5.50;1.73;;;8.80;95.10;;;;;;2121890;27;20306;-76
2020/12/14 02:55:40;;;;;;;3.08;1.48;;;8.70;95.10;;;;;;2123370;27;20027;-79
2020/12/14 02:56:43;;;;;;;4.25;1.90;;;8.80;95.10;;;;;;2123688;27;20077;-75
2020/12/14 02:57:43;;;;;;;1.60;1.30;;;8.80;95.10;;;;;;2114258;28;20513;-77
2020/12/14 02:58:44;;;;;;;3.10;1.35;;;8.70;95.00;;;;;;2097725;28;20230;-76
2020/12/14 02:59:44;;;;;;;3.72;1.27;;;8.80;95.10;;;;;;2105957;28;20012;-75
2020/12/14 03:00:47;;;;;;;4.57;1.40;;;8.80;95.10;;;;;;2123625;27;20019;-76
2020/12/14 03:01:51;;;;;;;5.90;1.58;;;8.80;95.00;;;;;;2114104;28;20030;-77
2020/12/14 03:02:51;;;;;;;3.75;1.63;;;8.80;95.00;;;;;;2106686;28;20016;-77
2020/12/14 03:03:52;;;;;;;4.72;1.83;;;8.70;95.20;;;;;;2114702;28;20422;-77
2020/12/14 03:04:52;;;;;;;4.80;1.40;;;8.80;95.20;;;;;;2114269;28;20110;-78
2020/12/14 03:05:53;;;;;;;5.20;2.25;;;8.80;95.20;;;;;;2114624;28;20031;-77
2020/12/14 03:06:53;;;;;;;5.60;1.70;;;8.80;95.10;;;;;;2123632;27;20234;-79
2020/12/14 03:07:54;;;;;;;2.38;1.25;;;8.80;95.10;;;;;;2123380;27;20062;-76
2020/12/14 03:08:55;;;;;;;5.05;1.50;;;8.80;95.20;;;;;;2114578;28;20077;-76
2020/12/14 03:09:55;;;;;;;4.15;1.85;;;8.80;95.10;;;;;;2114198;28;20391;-77
2020/12/14 03:10:56;;;;;;;5.78;1.77;;;8.80;95.20;;;;;;2123662;27;20027;-78
2020/12/14 03:12:00;;;;;;;2.75;1.52;;;8.80;95.20;;;;;;2123414;27;20072;-78
2020/12/14 03:13:00;;;;;;;4.93;1.60;;;8.80;95.30;;;;;;2123612;27;20478;-78
2020/12/14 03:14:01;;;;;;;2.47;1.20;;;8.80;95.30;;;;;;2123412;27;20030;-77
2020/12/14 03:15:02;;;;;;;4.40;1.80;;;8.80;95.40;;;;;;2123824;27;20023;-81
2020/12/14 03:16:03;;;;;;;5.10;1.90;;;8.80;95.60;;;;;;2123269;27;20015;-76
2020/12/14 03:17:03;;;;;;;3.60;1.90;;;8.80;95.30;;;;;;2114156;28;20027;-76
2020/12/14 03:18:06;;;;;;;3.70;1.42;;;8.80;95.30;;;;;;2114468;28;20091;-77
2020/12/14 03:19:07;;;;;;;2.72;1.38;;;8.80;95.40;;;;;;2123097;27;20015;-76
2020/12/14 03:20:07;;;;;;;4.55;1.40;;;8.80;95.40;;;;;;2123391;27;20078;-80
2020/12/14 03:21:08;;;;;;;4.57;1.38;;;8.80;95.50;;;;;;2123554;27;20051;-79
2020/12/14 03:22:09;;;;;;;6.60;1.77;;;8.80;95.60;;;;;;2123064;27;20467;-75
2020/12/14 03:23:09;;;;;;;2.28;1.50;;;8.80;95.70;;;;;;2114404;28;20029;-78
2020/12/14 03:24:10;;;;;;;4.68;1.50;;;8.80;95.60;;;;;;2114460;28;20055;-76
2020/12/14 03:25:10;;;;;;;4.93;1.58;;;8.80;95.60;;;;;;2114333;28;20024;-75
2020/12/14 03:26:16;;;;;;;3.92;1.60;;;8.80;95.60;;;;;;2105581;28;20031;-76
2020/12/14 03:27:16;;;;;;;6.40;1.60;;;8.80;95.60;;;;;;2114856;27;20020;-76
2020/12/14 03:28:17;;;;;;;6.80;1.70;;;8.80;95.70;;;;;;2123391;27;20019;-75
2020/12/14 03:29:17;;;;;;;4.85;1.48;;;8.80;95.70;;;;;;2123359;27;20038;-75
2020/12/14 03:30:18;;;;;;;3.70;1.38;;;8.80;95.60;;;;;;2123115;27;20127;-76
2020/12/14 03:31:19;;;;;;;3.65;1.25;;;8.80;95.80;;;;;;2123456;27;20027;-75
2020/12/14 03:32:19;;;;;;;4.18;1.45;;;8.80;95.70;;;;;;2122796;27;20046;-77
2020/12/14 03:33:20;;;;;;;4.43;1.60;;;8.80;95.70;;;;;;2123600;27;20027;-75
2020/12/14 03:34:21;;;;;;;3.95;1.58;;;8.90;95.80;;;;;;2123435;27;20382;-77
2020/12/14 03:35:21;;;;;;;3.10;1.27;;;8.90;95.80;;;;;;2123303;27;20027;-76
2020/12/14 03:36:23;;;;;;;3.78;1.70;;;8.90;95.60;;;;;;2123242;27;20030;-78
2020/12/14 03:37:27;;;;;;;6.40;1.85;;;8.90;95.70;;;;;;2123298;27;20196;-77
2020/12/14 03:38:27;;;;;;;6.65;1.85;;;8.90;95.80;;;;;;2114292;28;20027;-75
2020/12/14 03:39:28;;;;;;;7.32;1.80;;;8.90;95.90;;;;;;2114302;28;20464;-77
2020/12/14 03:40:28;;;;;;;5.40;1.42;;;8.90;95.70;;;;;;2123430;27;20115;-78
2020/12/14 03:41:29;;;;;;;5.93;1.35;;;8.90;95.80;;;;;;2122945;27;20027;-78
2020/12/14 03:42:30;;;;;;;2.85;1.45;;;9.00;95.80;;;;;;2113968;28;20047;-77
2020/12/14 03:43:31;;;;;;;4.88;1.65;;;8.90;95.60;;;;;;2114338;28;20024;-75
2020/12/14 03:44:32;;;;;;;4.07;1.75;;;9.00;95.70;;;;;;2123203;27;20024;-77
2020/12/14 03:45:32;;;;;;;4.57;1.80;;;9.00;95.80;;;;;;2123448;27;20107;-77
2020/12/14 03:46:35;;;;;;;3.90;1.50;;;9.00;95.70;;;;;;2123179;27;20024;-75
2020/12/14 03:47:35;;;;;;;5.95;1.75;;;9.00;95.70;;;;;;2123304;27;20094;-76
2020/12/14 03:48:36;;;;;;;4.18;1.55;;;9.00;95.60;;;;;;2123183;27;20391;-76
2020/12/14 03:49:36;;;;;;;2.30;1.42;;;9.00;95.60;;;;;;2123527;27;20118;-75
2020/12/14 03:50:42;;;;;;;4.03;1.25;;;9.00;95.60;;;;;;2114246;28;20198;-76
2020/12/14 03:51:43;;;;;;;4.45;2.08;;;9.00;95.70;;;;;;2114572;28;20027;-76
2020/12/14 03:52:43;;;;;;;2.42;1.73;;;9.00;95.80;;;;;;2114136;28;20446;-77
2020/12/14 03:53:44;;;;;;;4.18;1.60;;;9.00;95.80;;;;;;2114268;28;20030;-75
2020/12/14 03:54:45;;;;;;;3.17;1.35;;;9.00;95.70;;;;;;2123077;27;20095;-79
2020/12/14 03:55:45;;;;;;;2.90;1.17;;;9.00;95.90;;;;;;2123282;27;20023;-75
2020/12/14 03:56:46;;;;;;;5.15;1.52;;;9.00;95.90;;;;;;2123393;27;20026;-78
2020/12/14 03:57:46;;;;;;;3.50;1.30;;;9.00;95.70;;;;;;2123004;27;20047;-76
2020/12/14 03:58:48;;;;;;;4.38;1.45;;;9.00;95.90;;;;;;2114284;28;20020;-75
2020/12/14 03:59:48;;;;;;;4.13;1.58;;;9.00;95.80;;;;;;2105191;28;20415;-78
2020/12/14 04:00:49;;;;;;;4.60;1.40;;;9.00;95.70;;;;;;2114027;28;20031;-78
2020/12/14 04:01:55;;;;;;;2.70;1.35;;;9.10;95.90;;;;;;2121957;27;20066;-77
2020/12/14 04:02:56;;;;;;;7.20;1.83;;;9.10;95.90;;;;;;2114046;28;20122;-77
2020/12/14 04:03:58;;;;;;;3.53;1.75;;;9.00;96.00;;;;;;2113957;28;20016;-77
2020/12/14 04:04:58;;;;;;;5.55;1.65;;;9.10;95.90;;;;;;2114383;28;20139;-77
2020/12/14 04:05:59;;;;;;;3.10;1.40;;;9.10;95.90;;;;;;2114070;28;20199;-78
2020/12/14 04:06:59;;;;;;;3.53;1.48;;;9.10;95.90;;;;;;2112939;28;20065;-77
2020/12/14 04:08:00;;;;;;;3.38;1.27;;;9.10;96.00;;;;;;2123021;27;20103;-76
2020/12/14 04:09:00;;;;;;;5.78;1.80;;;9.10;96.00;;;;;;2114486;28;20062;-76
2020/12/14 04:10:01;;;;;;;3.72;1.15;;;9.10;96.00;;;;;;2105392;28;20028;-76
2020/12/14 04:11:03;;;;;;;4.45;1.33;;;9.10;96.10;;;;;;2113954;28;20023;-77
2020/12/14 04:12:04;;;;;;;2.05;1.42;;;9.10;96.10;;;;;;2113936;27;20041;-76
2020/12/14 04:13:04;;;;;;;3.00;1.50;;;9.10;96.20;;;;;;2114167;28;20407;-77
2020/12/14 04:14:05;;;;;;;4.30;1.40;;;9.10;96.20;;;;;;2113873;28;20028;-78
2020/12/14 04:15:05;;;;;;;4.05;1.13;;;9.10;96.30;;;;;;2113954;28;20541;-78
2020/12/14 04:16:07;;;;;;;2.20;1.02;;;9.10;96.30;;;;;;2113992;28;20404;-78
2020/12/14 04:17:07;;;;;;;3.08;1.58;;;9.20;96.30;;;;;;2123156;27;20080;-78
2020/12/14 04:18:08;;;;;;;4.40;1.55;;;9.20;96.20;;;;;;2123108;27;20098;-77
2020/12/14 04:19:09;;;;;;;2.05;1.20;;;9.20;96.20;;;;;;2114318;28;20030;-78
2020/12/14 04:20:09;;;;;;;4.38;1.40;;;9.20;96.30;;;;;;2114183;28;20097;-75
2020/12/14 04:21:10;;;;;;;4.00;1.45;;;9.20;96.40;;;;;;2123431;27;20012;-75
2020/12/14 04:22:11;;;;;;;3.28;1.25;;;9.20;96.30;;;;;;2113486;28;20023;-75
2020/12/14 04:23:11;;;;;;;2.75;1.40;;;9.20;96.30;;;;;;2114216;28;20034;-78
2020/12/14 04:24:12;;;;;;;3.45;1.00;;;9.20;96.20;;;;;;2123191;27;20023;-78
2020/12/14 04:25:12;;;;;;;2.03;1.42;;;9.20;96.20;;;;;;2123165;27;20022;-76
2020/12/14 04:26:16;;;;;;;3.05;1.40;;;9.20;96.20;;;;;;2122939;27;20019;-77
2020/12/14 04:27:16;;;;;;;1.85;1.45;;;9.30;96.20;;;;;;2123216;27;20080;-76
2020/12/14 04:28:17;;;;;;;3.60;1.50;;;9.30;96.20;;;;;;2122819;27;20098;-77
2020/12/14 04:29:17;;;;;;;3.35;1.33;;;9.30;96.30;;;;;;2123133;27;20076;-76
2020/12/14 04:30:18;;;;;;;3.45;1.33;;;9.30;96.30;;;;;;2113806;28;20032;-76
2020/12/14 04:31:19;;;;;;;5.65;1.67;;;9.30;96.20;;;;;;2114000;28;20020;-76
2020/12/14 04:32:19;;;;;;;4.13;1.52;;;9.30;96.30;;;;;;2113475;28;20757;-76
2020/12/14 04:33:20;;;;;;;4.47;1.60;;;9.30;96.30;;;;;;2114203;28;20152;-77
2020/12/14 04:34:22;;;;;;;5.40;1.60;;;9.30;96.30;;;;;;2122879;27;20102;-78
2020/12/14 04:35:23;;;;;;;3.10;1.42;;;9.30;96.30;;;;;;2122889;27;20027;-77
2020/12/14 04:36:24;;;;;;;3.33;1.52;;;9.30;96.30;;;;;;2123099;27;20371;-76
2020/12/14 04:37:24;;;;;;;3.50;1.48;;;9.30;96.20;;;;;;2113681;28;20027;-79
2020/12/14 04:38:25;;;;;;;4.10;1.20;;;9.30;96.30;;;;;;2113893;28;20490;-77
2020/12/14 04:39:26;;;;;;;4.57;1.55;;;9.30;96.30;;;;;;2122784;27;20102;-75
2020/12/14 04:40:28;;;;;;;2.72;1.45;;;9.40;96.40;;;;;;2122967;27;20027;-77
2020/12/14 04:41:28;;;;;;;1.70;1.13;;;9.40;96.50;;;;;;2122392;27;20102;-76
2020/12/14 04:42:30;;;;;;;3.83;1.40;;;9.40;96.60;;;;;;2113792;28;20016;-76
2020/12/14 04:43:31;;;;;;;2.88;1.23;;;9.40;96.50;;;;;;2113772;27;20128;-75
2020/12/14 04:44:33;;;;;;;3.50;1.50;;;9.40;96.50;;;;;;2113516;28;20503;-75
2020/12/14 04:45:34;;;;;;;2.65;1.13;;;9.40;96.40;;;;;;2113872;28;20020;-77
2020/12/14 04:46:35;;;;;;;4.60;1.48;;;9.40;96.40;;;;;;2113703;28;20119;-77
2020/12/14 04:47:36;;;;;;;2.78;1.35;;;9.40;96.30;;;;;;2113557;28;20028;-77
2020/12/14 04:48:36;;;;;;;4.32;1.60;;;9.40;96.40;;;;;;2122927;27;20023;-76
2020/12/14 04:49:39;;;;;;;4.53;1.73;;;9.40;96.40;;;;;;2113557;28;20020;-77
2020/12/14 04:50:40;;;;;;;2.45;0.88;;;9.50;96.50;;;;;;2113867;27;20093;-77
2020/12/14 04:51:41;;;;;;;2.00;1.30;;;9.40;96.50;;;;;;2122144;27;20015;-76
2020/12/14 04:52:42;;;;;;;4.15;1.10;;;9.50;96.50;;;;;;2113711;28;20536;-78
2020/12/14 04:53:45;;;;;;;5.10;1.30;;;9.50;96.60;;;;;;2113678;28;20043;-77
2020/12/14 04:54:50;;;;;;;5.13;1.52;;;9.50;96.70;;;;;;2122804;27;20070;-78
2020/12/14 04:55:51;;;;;;;6.50;1.58;;;9.50;96.70;;;;;;2122726;27;20363;-75
2020/12/14 04:56:54;;;;;;;2.53;1.15;;;9.50;96.70;;;;;;2122829;27;20015;-79
2020/12/14 04:57:55;;;;;;;5.60;1.33;;;9.50;96.70;;;;;;2113370;28;20274;-75
2020/12/14 04:58:57;;;;;;;3.05;1.60;;;9.50;96.80;;;;;;2104992;28;20504;-77
2020/12/14 04:59:58;;;;;;;3.33;1.40;;;9.50;96.80;;;;;;2113574;28;20073;-79
2020/12/14 05:00:58;;;;;;;3.25;1.80;;;9.50;96.90;;;;;;2122623;27;20095;-77
2020/12/14 05:02:10;;;;;;;1.50;1.13;;;9.50;96.80;;;;;;2122240;27;20581;-77
2020/12/14 05:03:10;;;;;;;2.03;1.23;;;9.50;96.80;;;;;;2122947;27;20011;-75
2020/12/14 05:04:12;;;;;;;3.50;1.23;;;9.50;96.90;;;;;;2122710;27;20019;-78
2020/12/14 05:05:13;;;;;;;3.03;1.40;;;9.50;97.10;;;;;;2113683;28;20114;-77
2020/12/14 05:06:14;;;;;;;4.10;1.33;;;9.50;97.00;;;;;;2113439;28;20019;-78
2020/12/14 05:07:15;;;;;;;3.47;1.58;;;9.50;97.10;;;;;;2122460;27;20106;-78
2020/12/14 05:08:27;;;;;;;4.68;1.50;;;9.50;97.10;;;;;;2122515;27;20011;-76
2020/12/14 05:09:28;;;;;;;4.28;1.38;;;9.50;97.00;;;;;;2122808;27;20111;-76
2020/12/14 05:10:29;;;;;;;1.92;1.10;;;9.50;97.10;;;;;;2113618;28;20080;-75
2020/12/14 05:11:34;;;;;;;4.43;1.40;;;9.50;97.20;;;;;;2113093;28;20036;-75
2020/12/14 05:12:39;;;;;;;3.20;1.02;;;9.50;97.20;;;;;;2113251;28;20053;-76
2020/12/14 05:13:41;;;;;;;4.43;1.40;;;9.50;97.10;;;;;;2114613;27;20526;-75
2020/12/14 05:14:41;;;;;;;3.70;1.15;;;9.50;97.10;;;;;;2122360;27;20019;-77
2020/12/14 05:15:42;;;;;;;2.20;1.30;;;9.50;97.00;;;;;;2122881;27;20023;-75
2020/12/14 05:16:43;;;;;;;2.55;1.20;;;9.50;97.10;;;;;;2113499;28;20023;-76
2020/12/14 05:17:43;;;;;;;5.30;1.88;;;9.50;97.20;;;;;;2105184;28;20044;-76
2020/12/14 05:18:44;;;;;;;3.05;1.30;;;9.60;97.30;;;;;;2104583;28;20392;-77
2020/12/14 05:19:44;;;;;;;6.82;1.48;;;9.60;97.30;;;;;;2113809;28;20026;-75
2020/12/14 05:20:57;;;;;;;2.80;1.27;;;9.60;97.30;;;;;;2121758;27;20484;-78
2020/12/14 05:21:59;;;;;;;4.53;1.60;;;9.50;97.20;;;;;;2121725;27;20076;-78
2020/12/14 05:23:01;;;;;;;3.28;1.25;;;9.60;97.20;;;;;;2122579;27;20011;-76